createdAt,value
2022-12-08T00:01:34.791Z,12.87
2022-12-08T00:04:03.753Z,12.52
2022-12-08T00:06:51.127Z,13.07
2022-12-08T00:09:22.926Z,12.27
2022-12-08T00:11:56.623Z,12.20
2022-12-08T00:14:27.659Z,13.15
2022-12-08T00:16:55.626Z,13.02
2022-12-08T00:19:23.839Z,12.80
2022-12-08T00:21:52.023Z,12.40
2022-12-08T00:24:20.785Z,13.52
2022-12-08T00:26:48.726Z,12.75
2022-12-08T00:29:17.731Z,12.93
2022-12-08T00:31:47.216Z,12.77
2022-12-08T00:34:15.886Z,13.80
2022-12-08T00:36:44.455Z,14.38
2022-12-08T00:39:12.765Z,14.05
2022-12-08T00:41:58.691Z,14.60
2022-12-08T00:44:26.320Z,13.60
2022-12-08T00:46:58.291Z,13.15
2022-12-08T00:49:26.166Z,14.45
2022-12-08T00:51:53.833Z,13.15
2022-12-08T00:54:22.846Z,13.82
2022-12-08T00:56:50.709Z,13.93
2022-12-08T00:59:18.578Z,13.93
2022-12-08T01:01:47.511Z,14.30
2022-12-08T01:04:19.004Z,14.80
2022-12-08T01:06:46.898Z,13.65
2022-12-08T01:09:15.745Z,13.80
2022-12-08T01:11:44.628Z,13.18
2022-12-08T01:14:13.328Z,12.65
2022-12-08T01:16:42.056Z,13.27
2022-12-08T01:19:11.175Z,12.30
2022-12-08T01:21:40.653Z,12.57
2022-12-08T01:24:10.693Z,12.57
2022-12-08T01:26:39.417Z,12.38
2022-12-08T01:29:07.781Z,13.73
2022-12-08T01:31:35.861Z,12.70
2022-12-08T01:34:03.440Z,13.25
2022-12-08T01:36:33.131Z,13.73
2022-12-08T01:39:02.981Z,13.27
2022-12-08T01:41:33.686Z,14.10
2022-12-08T01:44:02.922Z,12.40
2022-12-08T01:46:33.078Z,12.87
2022-12-08T01:49:05.294Z,12.32
2022-12-08T01:51:36.162Z,12.40
2022-12-08T01:54:06.781Z,13.02
2022-12-08T01:56:38.877Z,11.15
2022-12-08T01:59:07.426Z,12.57
2022-12-08T02:01:35.556Z,11.73
2022-12-08T02:04:05.291Z,11.82
2022-12-08T02:06:36.349Z,11.00
2022-12-08T02:09:06.546Z,10.20
2022-12-08T02:11:34.170Z,10.37
2022-12-08T02:14:02.662Z,10.00
2022-12-08T02:16:38.101Z,11.43
2022-12-08T02:19:33.962Z,9.98
2022-12-08T02:22:08.272Z,10.27
2022-12-08T02:24:39.862Z,9.33
2022-12-08T02:27:33.712Z,9.77
2022-12-08T02:30:21.126Z,9.10
2022-12-08T02:33:16.979Z,9.80
2022-12-08T02:35:55.363Z,9.97
2022-12-08T02:38:30.422Z,9.25
2022-12-08T02:41:06.087Z,9.83
2022-12-08T02:43:37.711Z,9.73
2022-12-08T02:46:09.197Z,9.60
2022-12-08T02:48:37.181Z,8.63
2022-12-08T02:51:06.779Z,8.80
2022-12-08T02:53:36.299Z,9.00
2022-12-08T02:56:12.997Z,8.63
2022-12-08T02:58:57.515Z,8.95
2022-12-08T03:01:47.049Z,8.38
2022-12-08T03:04:19.206Z,8.60
2022-12-08T03:06:52.985Z,8.38
2022-12-08T03:09:26.614Z,8.57
2022-12-08T03:11:58.069Z,7.82
2022-12-08T03:14:26.218Z,8.73
2022-12-08T03:16:56.997Z,9.10
2022-12-08T03:19:27.304Z,8.98
2022-12-08T03:22:02.980Z,9.23
2022-12-08T03:24:32.563Z,9.65
2022-12-08T03:27:04.197Z,10.05
2022-12-08T03:29:32.183Z,9.77
2022-12-08T03:32:04.090Z,9.25
2022-12-08T03:34:32.261Z,9.95
2022-12-08T03:37:03.006Z,10.55
2022-12-08T03:39:32.881Z,11.23
2022-12-08T03:42:01.629Z,11.23
2022-12-08T03:44:30.121Z,11.98
2022-12-08T03:46:58.638Z,11.23
2022-12-08T03:49:27.202Z,11.18
2022-12-08T03:51:55.399Z,11.65
2022-12-08T03:54:25.177Z,10.70
2022-12-08T03:56:54.921Z,12.40
2022-12-08T03:59:22.413Z,12.88
2022-12-08T04:01:50.074Z,12.20
2022-12-08T04:04:19.522Z,11.73
2022-12-08T04:06:47.173Z,9.93
2022-12-08T04:09:15.117Z,10.23
2022-12-08T04:11:44.253Z,6.65
2022-12-08T04:14:11.797Z,6.32
2022-12-08T04:16:40.409Z,4.72
2022-12-08T04:19:08.028Z,1.58
2022-12-08T04:21:35.646Z,1.92
2022-12-08T04:24:03.428Z,1.15
2022-12-08T04:26:31.972Z,1.02
2022-12-08T04:29:00.831Z,1.90
2022-12-08T04:31:28.697Z,0.80
2022-12-08T04:33:56.806Z,1.67
2022-12-08T04:36:25.369Z,1.47
2022-12-08T04:38:53.354Z,1.88
2022-12-08T04:41:22.151Z,1.80
2022-12-08T04:43:49.896Z,1.35
2022-12-08T04:46:19.095Z,0.98
2022-12-08T04:48:46.800Z,1.67
2022-12-08T04:51:17.597Z,1.55
2022-12-08T04:53:46.879Z,1.25
2022-12-08T04:56:16.715Z,1.43
2022-12-08T04:58:45.421Z,1.88
2022-12-08T05:01:13.124Z,1.40
2022-12-08T05:03:42.322Z,0.52
2022-12-08T05:06:11.667Z,0.88
2022-12-08T05:08:39.132Z,0.57
2022-12-08T05:11:08.518Z,0.73
2022-12-08T05:13:36.338Z,0.68
2022-12-08T05:16:05.618Z,1.10
2022-12-08T05:18:33.342Z,0.50
2022-12-08T05:21:02.275Z,0.10
2022-12-08T05:23:29.954Z,1.20
2022-12-08T05:25:58.439Z,0.50
2022-12-08T05:28:43.338Z,1.10
2022-12-08T05:31:12.601Z,0.47
2022-12-08T05:33:40.371Z,0.50
2022-12-08T05:36:09.923Z,1.30
2022-12-08T05:38:37.700Z,0.20
2022-12-08T05:41:07.066Z,0.00
2022-12-08T05:43:34.997Z,0.03
2022-12-08T05:46:02.927Z,0.70
2022-12-08T05:48:31.501Z,0.70
2022-12-08T05:50:59.127Z,0.40
2022-12-08T05:53:28.442Z,1.10
2022-12-08T05:55:56.284Z,0.30
2022-12-08T05:58:24.861Z,1.10
2022-12-08T06:00:53.135Z,0.15
2022-12-08T06:03:20.878Z,0.20
2022-12-08T06:05:49.103Z,0.40
2022-12-08T06:08:17.339Z,0.05
2022-12-08T06:10:46.730Z,0.80
2022-12-08T06:13:14.398Z,0.20
2022-12-08T06:15:42.663Z,0.52
2022-12-08T06:18:11.529Z,0.00
2022-12-08T06:20:39.227Z,1.10
2022-12-08T06:23:06.895Z,0.30
2022-12-08T06:25:35.488Z,0.15
2022-12-08T06:28:05.990Z,0.65
2022-12-08T06:30:34.611Z,0.50
2022-12-08T06:33:02.817Z,0.00
2022-12-08T06:35:30.398Z,0.00
2022-12-08T06:37:59.741Z,0.10
2022-12-08T06:40:28.263Z,0.50
2022-12-08T06:42:55.760Z,0.15
2022-12-08T06:45:24.728Z,0.10
2022-12-08T06:47:52.728Z,0.00
2022-12-08T06:50:21.236Z,0.80
2022-12-08T06:52:58.467Z,0.03
2022-12-08T06:58:16.860Z,0.00
2022-12-08T07:00:48.757Z,0.30
2022-12-08T07:03:16.430Z,0.13
2022-12-08T07:05:43.974Z,0.00
2022-12-08T07:08:11.570Z,0.00
2022-12-08T07:10:40.617Z,0.00
2022-12-08T07:13:08.182Z,0.30
2022-12-08T07:15:35.747Z,0.00
2022-12-08T07:18:04.734Z,0.10
2022-12-08T07:20:32.293Z,0.20
2022-12-08T07:23:00.125Z,0.20
2022-12-08T07:25:27.862Z,0.40
2022-12-08T07:27:55.441Z,0.35
2022-12-08T07:30:23.259Z,0.00
2022-12-08T07:32:51.822Z,0.20
2022-12-08T07:35:22.177Z,0.80
2022-12-08T07:37:51.170Z,0.00
2022-12-08T07:40:19.765Z,0.05
2022-12-08T07:42:48.562Z,0.60
2022-12-08T07:45:16.621Z,0.10
2022-12-08T07:47:44.512Z,0.05
2022-12-08T07:50:12.399Z,0.57
2022-12-08T07:52:44.144Z,0.40
2022-12-08T07:55:11.720Z,0.22
2022-12-08T07:57:39.436Z,0.00
2022-12-08T08:00:08.596Z,0.00
2022-12-08T08:02:36.360Z,0.00
2022-12-08T08:05:04.722Z,0.00
2022-12-08T08:07:32.728Z,0.00
2022-12-08T08:10:01.966Z,0.70
2022-12-08T08:12:32.614Z,0.40
2022-12-08T08:15:01.514Z,0.20
2022-12-08T08:17:29.756Z,0.10
2022-12-08T08:20:00.093Z,0.00
2022-12-08T08:22:28.147Z,0.10
2022-12-08T08:24:56.390Z,0.30
2022-12-08T08:27:26.993Z,0.07
2022-12-08T08:29:55.707Z,0.00
2022-12-08T08:32:23.261Z,0.10
2022-12-08T08:34:52.589Z,0.00
2022-12-08T08:37:20.520Z,0.00
2022-12-08T08:39:48.153Z,0.00
2022-12-08T08:42:15.916Z,0.00
2022-12-08T08:44:44.846Z,0.10
2022-12-08T08:47:14.508Z,0.00
2022-12-08T08:49:42.778Z,0.00
2022-12-08T08:52:11.159Z,0.00
2022-12-08T08:54:39.767Z,0.00
2022-12-08T08:57:07.732Z,0.10
2022-12-08T08:59:35.575Z,0.17
2022-12-08T09:02:04.990Z,0.00
2022-12-08T09:04:33.007Z,0.00
2022-12-08T09:07:02.198Z,0.00
2022-12-08T09:09:30.920Z,0.00
2022-12-08T09:11:59.213Z,0.00
2022-12-08T09:14:27.979Z,0.20
2022-12-08T09:16:55.648Z,0.30
2022-12-08T09:19:24.887Z,0.00
2022-12-08T09:21:53.502Z,0.00
2022-12-08T09:24:21.083Z,0.00
2022-12-08T09:26:48.687Z,0.00
2022-12-08T09:29:17.798Z,0.00
2022-12-08T09:31:45.893Z,0.00
2022-12-08T09:34:13.738Z,0.30
2022-12-08T09:36:43.059Z,0.00
2022-12-08T09:39:10.599Z,0.00
2022-12-08T09:41:48.200Z,0.20
2022-12-08T09:44:40.385Z,0.00
2022-12-08T09:47:15.528Z,0.10
2022-12-08T09:49:47.282Z,0.05
2022-12-08T09:52:21.414Z,0.00
2022-12-08T09:54:49.563Z,0.00
2022-12-08T09:57:20.590Z,0.00
2022-12-08T09:59:51.024Z,0.00
2022-12-08T10:02:23.070Z,0.00
2022-12-08T10:04:51.144Z,0.00
2022-12-08T10:07:25.403Z,0.00
2022-12-08T10:09:59.281Z,0.00
2022-12-08T10:12:29.510Z,0.15
2022-12-08T10:15:03.814Z,0.47
2022-12-08T10:17:35.299Z,0.30
2022-12-08T10:20:08.021Z,0.00
2022-12-08T10:22:42.912Z,0.30
2022-12-08T10:25:16.924Z,0.20
2022-12-08T10:27:44.731Z,0.03
2022-12-08T10:30:19.915Z,0.00
2022-12-08T10:32:52.655Z,0.00
2022-12-08T10:35:22.278Z,0.00
2022-12-08T10:37:58.534Z,0.00
2022-12-08T10:40:29.313Z,0.00
2022-12-08T10:42:59.078Z,0.10
2022-12-08T10:45:28.010Z,0.00
2022-12-08T10:48:01.447Z,0.00
2022-12-08T10:50:34.725Z,0.00
2022-12-08T10:53:12.461Z,0.00
2022-12-08T10:55:42.810Z,0.13
2022-12-08T10:58:26.719Z,0.10
2022-12-08T11:00:56.790Z,0.10
2022-12-08T11:03:28.626Z,0.00
2022-12-08T11:06:09.036Z,0.00
2022-12-08T11:08:46.829Z,0.00
2022-12-08T11:11:15.065Z,0.05
2022-12-08T11:13:43.490Z,0.10
2022-12-08T11:16:14.893Z,0.00
2022-12-08T11:18:44.353Z,0.00
2022-12-08T11:21:14.547Z,0.00
2022-12-08T11:23:51.316Z,0.00
2022-12-08T11:26:21.988Z,0.00
2022-12-08T11:28:49.759Z,0.03
2022-12-08T11:31:26.554Z,0.00
2022-12-08T11:33:56.685Z,0.40
2022-12-08T11:36:30.810Z,0.00
2022-12-08T11:39:02.351Z,0.00
2022-12-08T11:42:34.394Z,0.10
2022-12-08T11:45:07.477Z,0.30
2022-12-08T11:47:42.143Z,0.20
2022-12-08T11:50:19.576Z,0.00
2022-12-08T11:52:49.681Z,0.20
2022-12-08T11:55:33.786Z,0.25
2022-12-08T11:58:13.178Z,0.05
2022-12-08T12:00:41.799Z,0.00
2022-12-08T12:03:17.743Z,0.00
2022-12-08T12:06:12.983Z,0.08
2022-12-08T12:08:49.462Z,0.00
2022-12-08T12:11:43.666Z,0.70
2022-12-08T12:14:21.195Z,0.00
2022-12-08T12:16:57.933Z,0.10
2022-12-08T12:19:27.242Z,0.00
2022-12-08T12:21:57.244Z,0.00
2022-12-08T12:24:31.537Z,0.10
2022-12-08T12:28:06.469Z,0.00
2022-12-08T12:30:51.614Z,0.00
2022-12-08T12:33:19.884Z,0.10
2022-12-08T12:35:49.477Z,0.15
2022-12-08T12:38:40.038Z,0.00
2022-12-08T12:41:09.239Z,0.00
2022-12-08T12:43:39.985Z,0.00
2022-12-08T12:46:53.266Z,0.13
2022-12-08T12:49:54.846Z,0.00
2022-12-08T12:52:48.257Z,0.10
2022-12-08T12:55:56.717Z,0.00
2022-12-08T12:58:50.917Z,0.00
2022-12-08T13:01:51.951Z,0.00
2022-12-08T13:04:22.087Z,0.10
2022-12-08T13:06:51.485Z,0.00
2022-12-08T13:09:24.804Z,0.10
2022-12-08T13:11:58.363Z,0.40
2022-12-08T13:14:32.911Z,0.00
2022-12-08T13:17:02.555Z,0.00
2022-12-08T13:19:33.898Z,0.00
2022-12-08T13:22:03.647Z,0.00
2022-12-08T13:24:35.529Z,0.00
2022-12-08T13:27:35.388Z,0.00
2022-12-08T13:30:45.171Z,0.00
2022-12-08T13:33:18.412Z,0.00
2022-12-08T13:35:53.144Z,0.10
2022-12-08T13:38:27.566Z,0.10
2022-12-08T13:40:57.269Z,0.00
2022-12-08T13:43:47.383Z,0.28
2022-12-08T13:51:15.866Z,1.23
2022-12-08T13:58:06.083Z,2.45
2022-12-08T14:00:34.265Z,2.83
2022-12-08T14:03:03.181Z,3.00
2022-12-08T14:06:10.343Z,2.72
2022-12-08T14:08:58.820Z,2.95
2022-12-08T14:11:34.612Z,3.08
2022-12-08T14:14:04.666Z,2.70
2022-12-08T14:16:38.529Z,2.70
2022-12-08T14:19:17.979Z,2.60
2022-12-08T14:21:52.496Z,2.25
2022-12-08T14:24:22.643Z,2.20
2022-12-08T14:26:54.604Z,2.20
2022-12-08T14:29:40.215Z,2.10
2022-12-08T14:32:20.956Z,2.27
2022-12-08T14:34:54.953Z,2.15
2022-12-08T14:37:23.831Z,2.28
2022-12-08T14:39:52.844Z,2.33
2022-12-08T14:42:26.356Z,2.28
2022-12-08T14:44:59.485Z,2.40
2022-12-08T14:47:30.674Z,2.45
2022-12-08T14:49:59.281Z,2.40
2022-12-08T14:52:28.880Z,2.72
2022-12-08T14:54:56.802Z,2.90
2022-12-08T14:57:30.887Z,3.17
2022-12-08T15:00:00.190Z,2.97
2022-12-08T15:02:32.137Z,2.70
2022-12-08T15:05:05.106Z,2.78
2022-12-08T15:07:40.032Z,3.22
2022-12-08T15:10:19.922Z,3.03
2022-12-08T15:13:00.548Z,3.17
2022-12-08T15:15:29.650Z,3.20
2022-12-08T15:18:04.415Z,3.10
2022-12-08T15:20:40.745Z,3.10
2022-12-08T15:23:21.039Z,3.27
2022-12-08T15:25:49.525Z,3.08
2022-12-08T15:28:25.204Z,3.30
2022-12-08T15:30:57.761Z,3.08
2022-12-08T15:33:26.929Z,3.60
2022-12-08T15:35:56.491Z,3.05
2022-12-08T15:38:28.757Z,2.97
2022-12-08T15:40:58.539Z,3.00
2022-12-08T15:43:27.880Z,3.03
2022-12-08T15:46:00.112Z,3.35
2022-12-08T15:48:30.370Z,3.07
2022-12-08T15:50:58.469Z,4.00
2022-12-08T15:53:26.760Z,4.32
2022-12-08T15:58:55.132Z,4.10
2022-12-08T16:01:24.141Z,4.30
2022-12-08T16:07:19.759Z,5.05
2022-12-08T16:09:32.730Z,5.80
2022-12-08T16:12:18.438Z,5.90
2022-12-08T16:15:48.170Z,6.22
2022-12-08T16:17:36.589Z,6.00
2022-12-08T16:20:07.577Z,6.80
2022-12-08T16:25:24.132Z,6.50
2022-12-08T16:28:02.940Z,7.05
2022-12-08T16:30:36.193Z,6.65
2022-12-08T16:33:06.015Z,7.35
2022-12-08T16:35:39.531Z,7.15
2022-12-08T16:38:07.346Z,7.40
2022-12-08T16:40:58.771Z,7.68
2022-12-08T16:43:25.637Z,7.50
2022-12-08T16:45:58.210Z,8.43
2022-12-08T16:48:27.802Z,8.10
2022-12-08T16:50:55.499Z,8.27
2022-12-08T16:53:24.431Z,8.57
2022-12-08T16:55:52.643Z,9.02
2022-12-08T16:58:20.230Z,8.68
2022-12-08T17:00:48.272Z,9.70
2022-12-08T17:03:20.269Z,9.93
2022-12-08T17:05:48.364Z,9.85
2022-12-08T17:08:20.321Z,10.23
2022-12-08T17:11:07.478Z,9.60
2022-12-08T17:13:36.598Z,10.43
2022-12-08T17:16:09.131Z,9.73
2022-12-08T17:18:40.271Z,10.10
2022-12-08T17:21:12.967Z,10.05
2022-12-08T17:23:41.207Z,9.93
2022-12-08T17:27:10.693Z,10.70
2022-12-08T17:29:38.391Z,9.93
2022-12-08T17:32:07.124Z,10.55
2022-12-08T17:34:36.254Z,9.45
2022-12-08T17:37:03.905Z,10.05
2022-12-08T17:39:31.549Z,10.55
2022-12-08T17:41:59.185Z,11.27
2022-12-08T17:44:28.190Z,10.20
2022-12-08T17:46:56.020Z,11.13
2022-12-08T17:50:27.886Z,10.70
2022-12-08T17:53:00.704Z,12.10
2022-12-08T17:55:28.754Z,11.73
2022-12-08T17:57:58.737Z,10.98
2022-12-08T18:00:27.262Z,11.30
2022-12-08T18:02:55.968Z,11.82
2022-12-08T18:05:24.380Z,11.85
2022-12-08T18:07:52.269Z,12.23
2022-12-08T18:10:21.908Z,10.88
2022-12-08T18:12:50.694Z,11.40
2022-12-08T18:15:20.593Z,10.38
2022-12-08T18:17:50.078Z,10.17
2022-12-08T18:20:18.687Z,10.73
2022-12-08T18:22:47.724Z,10.75
2022-12-08T18:25:15.673Z,9.73
2022-12-08T18:27:45.677Z,9.73
2022-12-08T18:30:17.662Z,10.50
2022-12-08T18:32:46.943Z,9.07
2022-12-08T18:35:16.767Z,11.02
2022-12-08T18:37:44.659Z,11.30
2022-12-08T18:40:14.460Z,10.00
2022-12-08T18:42:44.558Z,10.27
2022-12-08T18:45:19.271Z,10.13
2022-12-08T18:47:52.549Z,10.35
2022-12-08T18:50:20.298Z,9.87
2022-12-08T18:52:50.194Z,10.65
2022-12-08T18:55:18.239Z,11.00
2022-12-08T18:57:46.268Z,9.93
2022-12-08T19:00:18.922Z,11.65
2022-12-08T19:02:48.565Z,12.35
2022-12-08T19:05:16.486Z,11.23
2022-12-08T19:07:45.534Z,12.27
2022-12-08T19:10:13.413Z,11.57
2022-12-08T19:12:41.311Z,13.13
2022-12-08T19:15:11.931Z,12.35
2022-12-08T19:17:41.731Z,12.10
2022-12-08T19:20:10.258Z,12.73
2022-12-08T19:22:39.625Z,12.10
2022-12-08T19:25:08.126Z,11.65
2022-12-08T19:27:36.105Z,12.95
2022-12-08T19:30:07.055Z,11.73
2022-12-08T19:32:34.795Z,11.60
2022-12-08T19:35:08.122Z,11.73
2022-12-08T19:37:36.526Z,12.70
2022-12-08T19:40:22.752Z,12.05
2022-12-08T19:43:09.179Z,10.75
2022-12-08T19:45:37.993Z,12.68
2022-12-08T19:48:08.232Z,12.60
2022-12-08T19:50:41.069Z,12.27
2022-12-08T19:53:10.756Z,12.90
2022-12-08T19:55:39.719Z,12.85
2022-12-08T19:58:09.689Z,13.45
2022-12-08T20:00:39.818Z,14.70
2022-12-08T20:03:07.775Z,12.85
2022-12-08T20:05:38.372Z,15.13
2022-12-08T20:08:08.322Z,14.02
2022-12-08T20:10:39.855Z,15.02
2022-12-08T20:13:27.235Z,14.18
2022-12-08T20:15:56.461Z,13.48
2022-12-08T20:18:25.623Z,13.90
2022-12-08T20:20:57.080Z,14.83
2022-12-08T20:23:24.660Z,18.00
2022-12-08T20:25:53.003Z,17.73
2022-12-08T20:28:22.399Z,19.27
2022-12-08T20:31:55.753Z,17.98
2022-12-08T20:34:23.505Z,18.65
2022-12-08T20:36:52.413Z,18.17
2022-12-08T20:39:21.091Z,19.02
2022-12-08T20:41:52.090Z,19.17
2022-12-08T20:44:19.702Z,17.85
2022-12-08T20:46:49.641Z,19.48
2022-12-08T20:49:19.017Z,19.73
2022-12-08T20:51:47.283Z,19.75
2022-12-08T20:54:18.000Z,18.52
2022-12-08T20:56:48.577Z,18.35
2022-12-08T20:59:18.376Z,18.48
2022-12-08T21:01:46.393Z,18.53
2022-12-08T21:04:15.101Z,18.20
2022-12-08T21:06:43.768Z,18.35
2022-12-08T21:09:13.056Z,16.00
2022-12-08T21:11:44.459Z,16.77
2022-12-08T21:14:13.453Z,16.85
2022-12-08T21:16:41.256Z,17.93
2022-12-08T21:19:09.319Z,16.35
2022-12-08T21:21:37.389Z,19.13
2022-12-08T21:24:06.625Z,18.92
2022-12-08T21:26:34.547Z,15.98
2022-12-08T21:29:04.591Z,18.25
2022-12-08T21:31:33.419Z,18.38
2022-12-08T21:34:02.843Z,18.40
2022-12-08T21:36:31.705Z,18.73
2022-12-08T21:39:01.187Z,19.15
2022-12-08T21:41:47.976Z,18.02
2022-12-08T21:44:19.533Z,17.02
2022-12-08T21:46:47.579Z,18.85
2022-12-08T21:49:15.713Z,17.92
2022-12-08T21:51:44.718Z,19.07
2022-12-08T21:54:18.399Z,18.58
2022-12-08T21:56:47.733Z,20.25
2022-12-08T21:59:17.377Z,19.08
2022-12-08T22:01:47.814Z,18.65
2022-12-08T22:04:18.938Z,19.20
2022-12-08T22:06:51.772Z,19.52
2022-12-08T22:09:20.547Z,19.63
2022-12-08T22:11:49.546Z,18.17
2022-12-08T22:14:19.334Z,18.42
2022-12-08T22:16:47.046Z,17.90
2022-12-08T22:19:15.265Z,19.03
2022-12-08T22:21:43.289Z,19.63
2022-12-08T22:24:11.163Z,19.70
2022-12-08T22:26:41.706Z,18.73
2022-12-08T22:29:09.565Z,19.95
2022-12-08T22:31:38.795Z,19.20
2022-12-08T22:34:06.829Z,20.48
2022-12-08T22:36:35.394Z,20.13
2022-12-08T22:39:04.104Z,19.80
2022-12-08T22:41:34.324Z,20.80
2022-12-08T22:44:02.269Z,23.00
2022-12-08T22:46:31.691Z,23.13
2022-12-08T22:49:01.474Z,22.60
2022-12-08T22:51:29.366Z,22.85
2022-12-08T22:54:00.531Z,23.40
2022-12-08T22:56:28.511Z,23.67
2022-12-08T22:58:59.906Z,24.67
2022-12-08T23:01:29.998Z,23.70
2022-12-08T23:04:02.118Z,23.27
2022-12-08T23:06:31.668Z,23.52
2022-12-08T23:09:00.857Z,23.60
2022-12-08T23:11:30.774Z,21.88
2022-12-08T23:14:01.205Z,23.52
2022-12-08T23:16:29.665Z,22.88
2022-12-08T23:18:58.506Z,21.50
2022-12-08T23:21:29.646Z,22.10
2022-12-08T23:24:00.503Z,21.70
2022-12-08T23:26:30.489Z,21.75
2022-12-08T23:28:59.049Z,23.23
2022-12-08T23:31:27.451Z,22.60
2022-12-08T23:33:57.805Z,23.43
2022-12-08T23:36:29.702Z,22.27
2022-12-08T23:38:59.315Z,21.38
2022-12-08T23:41:27.014Z,24.05
2022-12-08T23:43:54.990Z,21.48
2022-12-08T23:46:23.609Z,22.17
2022-12-08T23:48:52.263Z,20.13
2022-12-08T23:51:21.305Z,20.52
2022-12-08T23:53:53.631Z,20.10
2022-12-08T23:56:24.332Z,20.20
2022-12-08T23:58:55.400Z,18.05
